Pagina principale
METAR-TAF:

METAR-TAF

Aeroporti :

Frontone, Italia

latitudine: 43-31N, longitudine: 012-44E, altezza: 570 m

Osservazione

Il bollettino è stato emesso 15 minuti fa, alle 12:55 UTC
Vento 33 kt da sud/sud-est con raffiche fino a 50 kt
Temperature 8°C
Umidità 76%
Pressione 1003 hPa
Visibilità 10 km o più
Nuvoloso ad un'altezza di 2400 ft

METAR: LIVF 161255Z 15033G50KT 9999 BKN024 08/04 Q1003 RMK BKN MON S W CIME INC NC VAL NIL VIS MIN 9999

Ora: 14:10 (13:10 UTC)


TAF: mancante

Osservazioni e previsioni meteorologiche di più di 4000 aeroporti (messaggi METAR e TAF).

Le stazioni disponibili sono rappresentate dai dischi gialli e rossi sulla carta.

Puntare il mouse per vedere il nome della stazione.

Clicca sopra per visualizzare le osservazioni e previsioni meteorologiche.

Per cambiare la mappa : fare clic sui pulsanti verdi con una croce nera per ingrandire, il pulsante verde con un trattino per diminuire, o sulla freccia verde per le mappe adiacenti.


METAR-TAF: